Terminal Aerodrome Forecast
Issued by NWS

Home | Current Version | Previous Version | Graphics & Text | Print | Product List | Glossary On
Versions: 1 2 3 4 5 6 7 8 9 10 11 12 13 14 15 16 17 18 19 20 21 22 23 24
126
FTUS43 KLOT 150532
TAFDPA
TAF
KDPA 150532Z 1506/1606 23009KT 1/4SM -DZ FG OVC002
     FM151400 23007KT 3/4SM -DZ BR OVC003
     FM151800 26006KT 1 1/2SM -RA BR OVC004
     FM152300 32008KT 3SM BR OVC008
     FM160500 32014G19KT P6SM OVC010=

USA.gov is the U.S. government's official web portal to all federal, state and local government web resources and services.